NR25 weather

Vidant Multispecialty Clinic Heliport
Belhaven, North Carolina, United States

Public forecast

Using degrees Fahrenheit for public forecast. Weather courtesy of forecast.io.

Closest aviation weather report (METAR) to Vidant Multispecialty Clinic Heliport

Closest report is Warren Field, 20.8 nm (38.6 km) W. Retrieved 2019/10/20 23:35 UTC (1 minute ago):

KOCW 202335Z AUTO 29005KT 3SM BR OVC004 16/15 A2979 RMK AO2 T01600153

Closest aviation forecast (TAF) to Vidant Multispecialty Clinic Heliport

Closest forecast is Coastal Carolina Regional Airport, 35.3 nm (65.3 km) SW. Retrieved 2019/10/20 18:42 UTC (5 hours ago):

TAF COR KEWN 201741Z 2018/2118 21010G15KT P6SM SCT005 OVC025 FM202000 27010G15KT P6SM OVC006 TEMPO 2020/2024 2SM BR FM210000 30007KT P6SM OVC008 FM211200 31004KT P6SM BKN008